Time;durP1;ratioP1;P1;durP2;ratioP2;P2;SDS_P1;SDS_P2;PMS_P1;PMS_P2;Temp;Humidity;BMP_temperature;BMP_pressure;BME280_temperature;BME280_humidity;BME280_pressure;Samples;Min_cycle;Max_cycle;Signal;HPM_P1;HPM_P2
2020/12/29 00:00:53;;;;;;;6.68;3.67;;;332.80;1382.40;;;;;;5072670;28;20021;-62
2020/12/29 00:03:19;;;;;;;4.57;2.72;;;308.10;1382.40;;;;;;5070153;28;20020;-59
2020/12/29 00:05:46;;;;;;;5.47;3.15;;;308.10;1382.40;;;;;;5072249;28;20120;-60
2020/12/29 00:08:12;;;;;;;8.25;3.90;;;332.80;1382.40;;;;;;5070893;28;20030;-60
2020/12/29 00:10:38;;;;;;;6.25;3.97;;;332.80;1408.00;;;;;;5071678;28;20074;-59
2020/12/29 00:13:04;;;;;;;5.32;3.70;;;308.10;1382.40;;;;;;5071344;28;20029;-60
2020/12/29 00:15:30;;;;;;;6.32;4.13;;;308.10;1382.40;;;;;;5072527;28;20534;-62
2020/12/29 00:17:56;;;;;;;3.85;3.08;;;308.10;1382.40;;;;;;5072758;28;20108;-59
2020/12/29 00:20:22;;;;;;;7.13;4.30;;;308.10;1382.40;;;;;;5072249;28;20103;-58
2020/12/29 00:22:47;;;;;;;7.68;4.32;;;308.10;1382.40;;;;;;5072264;28;20032;-59
2020/12/29 00:25:17;;;;;;;7.05;3.55;;;308.00;1408.00;;;;;;5073060;28;20039;-59
2020/12/29 00:27:43;;;;;;;6.30;3.28;;;308.10;1408.00;;;;;;5071238;28;20041;-58
2020/12/29 00:30:09;;;;;;;4.45;3.22;;;308.10;1382.40;;;;;;5072450;28;20024;-64
2020/12/29 00:32:35;;;;;;;5.35;3.72;;;332.80;1408.00;;;;;;5072960;28;20420;-61
2020/12/29 00:35:01;;;;;;;6.18;3.90;;;332.80;1408.00;;;;;;5072708;28;20423;-60
2020/12/29 00:37:26;;;;;;;5.07;4.00;;;332.80;1382.40;;;;;;5072953;28;20033;-59
2020/12/29 00:39:52;;;;;;;6.40;3.72;;;332.80;1408.00;;;;;;5072808;28;20090;-59
2020/12/29 00:42:18;;;;;;;7.53;4.55;;;308.10;1356.80;;;;;;5058999;28;20028;-58
2020/12/29 00:44:43;;;;;;;6.75;4.22;;;332.80;1408.00;;;;;;5067186;28;20044;-61
2020/12/29 00:47:09;;;;;;;6.50;2.80;;;332.80;1382.40;;;;;;5072605;28;20016;-61
2020/12/29 00:49:37;;;;;;;4.72;3.28;;;332.80;1382.40;;;;;;5072921;28;20062;-61
2020/12/29 00:52:03;;;;;;;9.30;3.90;;;308.10;1382.40;;;;;;5072478;28;20081;-62
2020/12/29 00:54:29;;;;;;;5.95;2.80;;;308.10;1382.40;;;;;;5071954;28;20131;-63
2020/12/29 00:56:55;;;;;;;5.50;3.15;;;308.10;1356.80;;;;;;5070985;28;20040;-62
2020/12/29 00:59:21;;;;;;;4.72;3.05;;;308.10;1356.80;;;;;;5071514;28;20063;-62
2020/12/29 01:01:54;;;;;;;4.50;2.90;;;332.80;1356.80;;;;;;5071232;28;20469;-64
2020/12/29 01:04:19;;;;;;;3.33;2.40;;;332.90;1356.80;;;;;;5072037;28;20032;-61
2020/12/29 01:06:45;;;;;;;4.82;2.45;;;333.00;1331.20;;;;;;5072142;28;20044;-61
2020/12/29 01:09:11;;;;;;;5.25;3.05;;;333.10;1331.20;;;;;;5072250;28;20029;-61
2020/12/29 01:11:36;;;;;;;3.90;2.20;;;333.20;1305.60;;;;;;5072054;28;20035;-61
2020/12/29 01:14:02;;;;;;;3.10;1.90;;;333.20;1305.60;;;;;;5072317;28;20020;-61
2020/12/29 01:16:28;;;;;;;4.45;1.50;;;333.30;1305.60;;;;;;5072319;28;20032;-63
2020/12/29 01:18:53;;;;;;;4.15;1.83;;;333.30;1305.60;;;;;;5072199;28;20020;-61
2020/12/29 01:21:19;;;;;;;4.50;1.75;;;333.30;1305.60;;;;;;5072476;28;20367;-62
2020/12/29 01:23:45;;;;;;;2.45;1.55;;;333.30;1280.00;;;;;;5072491;28;20033;-64
2020/12/29 01:26:10;;;;;;;2.53;1.50;;;333.40;1280.00;;;;;;5072152;28;20119;-60
2020/12/29 01:28:39;;;;;;;3.17;1.30;;;333.50;1280.00;;;;;;5072287;28;20122;-64
2020/12/29 01:31:05;;;;;;;4.30;1.13;;;333.60;1280.00;;;;;;5072311;28;20028;-63
2020/12/29 01:33:30;;;;;;;11.30;1.08;;;333.70;1254.40;;;;;;5072396;28;20546;-64
2020/12/29 01:35:56;;;;;;;7.55;1.73;;;358.50;1254.40;;;;;;5071964;28;20111;-63
2020/12/29 01:38:22;;;;;;;2.95;0.70;;;358.60;1254.40;;;;;;5070413;28;20028;-62
2020/12/29 01:40:47;;;;;;;2.08;1.23;;;358.70;1228.80;;;;;;5072344;28;20070;-62
2020/12/29 01:43:13;;;;;;;3.72;1.45;;;358.80;1228.80;;;;;;5072135;28;20063;-64
2020/12/29 01:45:39;;;;;;;7.43;0.50;;;358.90;1228.80;;;;;;5072274;28;20028;-63
2020/12/29 01:48:05;;;;;;;3.03;0.70;;;359.00;1228.80;;;;;;5071878;28;20035;-63
2020/12/29 01:50:30;;;;;;;2.70;0.70;;;359.10;1228.80;;;;;;5072196;28;20028;-63
2020/12/29 01:53:01;;;;;;;4.10;0.77;;;359.10;1228.80;;;;;;5072415;28;20020;-63
2020/12/29 01:55:28;;;;;;;4.90;0.60;;;359.20;1228.80;;;;;;5071984;28;20033;-63
2020/12/29 01:57:58;;;;;;;0.60;0.45;;;359.20;1228.80;;;;;;5072314;28;20024;-65
2020/12/29 02:00:24;;;;;;;5.97;0.40;;;359.20;1228.80;;;;;;5076106;28;20027;-66
2020/12/29 02:02:50;;;;;;;1.25;0.50;;;359.30;1228.80;;;;;;5075652;28;20017;-64
2020/12/29 02:05:16;;;;;;;0.93;0.50;;;359.20;1228.80;;;;;;5075786;28;20082;-65
2020/12/29 02:07:42;;;;;;;1.08;0.20;;;359.30;1228.80;;;;;;5074540;28;20029;-64
2020/12/29 02:10:08;;;;;;;3.05;0.32;;;359.30;1228.80;;;;;;5075958;28;20024;-65
2020/12/29 02:12:35;;;;;;;1.42;0.30;;;359.20;1254.40;;;;;;5074156;28;20437;-64
2020/12/29 02:15:04;;;;;;;4.45;0.40;;;359.20;1254.40;;;;;;5075458;28;20056;-64
2020/12/29 02:17:30;;;;;;;3.35;0.77;;;359.20;1254.40;;;;;;5075717;28;20020;-64
2020/12/29 02:19:56;;;;;;;1.30;0.63;;;359.10;1331.20;;;;;;5075760;28;20024;-64
2020/12/29 02:22:23;;;;;;;1.63;0.50;;;359.00;1433.60;;;;;;5075745;28;20028;-63
2020/12/29 02:24:54;;;;;;;2.67;0.80;;;358.90;1459.20;;;;;;5075306;28;20478;-64
2020/12/29 02:27:21;;;;;;;9.52;1.17;;;358.60;1561.60;;;;;;5075224;28;20037;-62
2020/12/29 02:29:47;;;;;;;4.50;0.73;;;307.90;2304.00;;;;;;5075329;28;20028;-62
2020/12/29 02:32:13;;;;;;;10.52;1.27;;;281.90;2278.40;;;;;;5075384;28;20475;-62
2020/12/29 02:34:40;;;;;;;1.88;0.35;;;256.80;2252.80;;;;;;5075342;28;20493;-61
2020/12/29 02:37:08;;;;;;;2.00;0.30;;;256.10;2252.80;;;;;;5075241;28;20081;-64
2020/12/29 02:39:35;;;;;;;1.00;0.30;;;231.10;2252.80;;;;;;5075496;28;20043;-62
2020/12/29 02:42:01;;;;;;;1.60;0.20;;;230.80;2252.80;;;;;;5075065;28;20735;-62
2020/12/29 02:44:27;;;;;;;0.88;0.30;;;230.60;2252.80;;;;;;5074588;28;20147;-62
2020/12/29 02:46:52;;;;;;;1.48;0.30;;;230.40;2252.80;;;;;;5075153;28;20115;-62
2020/12/29 02:49:18;;;;;;;1.38;0.13;;;205.70;2252.80;;;;;;5075214;28;20028;-61
2020/12/29 02:51:45;;;;;;;0.65;0.40;;;205.60;2252.80;;;;;;5075248;28;20028;-62
2020/12/29 02:54:12;;;;;;;0.98;0.20;;;205.70;2252.80;;;;;;5075104;28;20029;-62
2020/12/29 02:56:39;;;;;;;1.02;0.10;;;205.60;2252.80;;;;;;5074966;28;20032;-62
2020/12/29 02:59:05;;;;;;;0.15;0.10;;;205.60;2252.80;;;;;;5074349;28;20029;-63
2020/12/29 03:01:31;;;;;;;3.40;0.40;;;205.60;2252.80;;;;;;5074990;28;20035;-62
2020/12/29 03:03:56;;;;;;;1.00;0.20;;;205.60;2252.80;;;;;;5057020;28;20035;-62
2020/12/29 03:06:23;;;;;;;1.27;0.55;;;205.60;2252.80;;;;;;5074757;28;20052;-63
2020/12/29 03:08:49;;;;;;;3.20;0.30;;;205.60;2252.80;;;;;;5074572;28;20056;-63
2020/12/29 03:11:15;;;;;;;1.00;0.35;;;205.70;2252.80;;;;;;5073533;28;20078;-63
2020/12/29 03:13:41;;;;;;;1.35;0.30;;;205.70;2252.80;;;;;;5074562;28;20013;-63
2020/12/29 03:16:07;;;;;;;0.47;0.10;;;205.70;2252.80;;;;;;5074511;28;20474;-64
2020/12/29 03:18:33;;;;;;;1.63;0.22;;;230.40;2252.80;;;;;;5074414;28;20021;-62
2020/12/29 03:20:58;;;;;;;0.95;0.20;;;230.50;2252.80;;;;;;5074623;28;20024;-63
2020/12/29 03:23:24;;;;;;;0.82;0.20;;;230.40;2252.80;;;;;;5074110;28;20043;-62
2020/12/29 03:25:50;;;;;;;0.90;0.35;;;230.50;2252.80;;;;;;5074912;28;20044;-64
2020/12/29 03:28:15;;;;;;;2.45;0.20;;;230.50;2252.80;;;;;;5074053;28;20025;-64
2020/12/29 03:30:41;;;;;;;0.10;0.10;;;230.50;2252.80;;;;;;5056281;28;20044;-63
2020/12/29 03:33:06;;;;;;;0.82;0.25;;;230.60;2252.80;;;;;;5072934;28;20028;-62
2020/12/29 03:35:32;;;;;;;0.20;0.13;;;230.70;2252.80;;;;;;5074333;28;20028;-62
2020/12/29 03:37:58;;;;;;;0.10;0.00;;;230.70;2252.80;;;;;;5073830;28;20024;-63
2020/12/29 03:40:23;;;;;;;0.85;0.22;;;230.70;2252.80;;;;;;5074121;28;20039;-64
2020/12/29 03:42:49;;;;;;;0.65;0.30;;;230.80;2252.80;;;;;;5074077;28;20134;-64
2020/12/29 03:45:15;;;;;;;0.55;0.13;;;230.80;2252.80;;;;;;5073992;28;20064;-65
2020/12/29 03:47:40;;;;;;;0.20;0.10;;;230.80;2252.80;;;;;;5073507;28;20028;-65
2020/12/29 03:50:06;;;;;;;1.33;0.13;;;230.80;2252.80;;;;;;5073960;28;20039;-65
2020/12/29 03:52:31;;;;;;;0.90;0.20;;;230.80;2252.80;;;;;;5073940;28;20347;-65
2020/12/29 03:54:57;;;;;;;0.63;0.10;;;230.90;2227.20;;;;;;5074066;28;20047;-66
2020/12/29 03:57:23;;;;;;;0.40;0.10;;;231.00;2201.60;;;;;;5073393;28;20029;-65
2020/12/29 03:59:48;;;;;;;0.80;0.30;;;231.00;2150.40;;;;;;5074185;28;20031;-65
2020/12/29 04:02:14;;;;;;;0.50;0.20;;;231.10;2176.00;;;;;;5073688;28;20074;-65
2020/12/29 04:04:40;;;;;;;0.77;0.25;;;231.00;2150.40;;;;;;5073424;28;20079;-63
2020/12/29 04:07:05;;;;;;;0.50;0.20;;;231.10;2099.20;;;;;;5073099;28;20406;-66
2020/12/29 04:09:31;;;;;;;1.98;0.60;;;231.20;2124.80;;;;;;5073581;28;20536;-65
2020/12/29 04:11:57;;;;;;;0.40;0.20;;;231.10;2099.20;;;;;;5073585;28;20039;-66
2020/12/29 04:14:24;;;;;;;3.40;0.47;;;231.20;2099.20;;;;;;5073461;28;20021;-64
2020/12/29 04:16:50;;;;;;;1.00;0.30;;;231.20;2073.60;;;;;;5073294;28;20059;-64
2020/12/29 04:19:16;;;;;;;0.47;0.30;;;231.20;2073.60;;;;;;5073278;28;20024;-64
2020/12/29 04:21:42;;;;;;;0.95;0.25;;;231.30;2073.60;;;;;;5072869;28;20021;-65
2020/12/29 04:24:07;;;;;;;1.35;0.63;;;256.00;2048.00;;;;;;5073470;28;20033;-64
2020/12/29 04:26:36;;;;;;;1.48;0.60;;;256.00;2099.20;;;;;;5072962;28;20097;-64
2020/12/29 04:29:02;;;;;;;1.45;0.30;;;256.10;2022.40;;;;;;5073178;28;20029;-64
2020/12/29 04:31:27;;;;;;;0.68;0.40;;;256.20;1996.80;;;;;;5054945;28;20036;-66
2020/12/29 04:33:53;;;;;;;1.52;0.50;;;256.20;1996.80;;;;;;5073246;28;20351;-65
2020/12/29 04:36:18;;;;;;;0.60;0.40;;;256.20;1971.20;;;;;;5054869;28;20070;-66
2020/12/29 04:38:44;;;;;;;2.17;0.70;;;256.20;1996.80;;;;;;5071241;28;20021;-65
2020/12/29 04:41:10;;;;;;;2.15;0.80;;;256.20;1996.80;;;;;;5072961;28;20506;-65
2020/12/29 04:43:35;;;;;;;1.05;0.63;;;256.20;1971.20;;;;;;5073053;28;20023;-64
2020/12/29 04:46:03;;;;;;;1.08;0.60;;;256.30;1971.20;;;;;;5072657;28;20068;-64
2020/12/29 04:48:31;;;;;;;1.43;0.80;;;256.40;1920.00;;;;;;5073007;28;20543;-65
2020/12/29 04:51:02;;;;;;;1.55;0.63;;;256.30;1920.00;;;;;;5072422;28;20095;-65
2020/12/29 04:53:30;;;;;;;0.80;0.50;;;256.40;1920.00;;;;;;5054825;28;20028;-65
2020/12/29 04:56:03;;;;;;;4.85;0.70;;;256.40;1894.40;;;;;;5071988;28;20115;-65
2020/12/29 04:58:31;;;;;;;0.90;0.55;;;256.40;1868.80;;;;;;5072943;28;20020;-65
2020/12/29 05:01:01;;;;;;;0.95;0.30;;;256.50;1843.20;;;;;;5070293;28;20051;-65
2020/12/29 05:03:30;;;;;;;0.82;0.52;;;256.50;1843.20;;;;;;5072887;28;20021;-65
2020/12/29 05:05:56;;;;;;;1.08;0.65;;;256.50;1868.80;;;;;;5072252;28;20566;-65
2020/12/29 05:08:22;;;;;;;0.63;0.32;;;256.50;1843.20;;;;;;5072097;28;20119;-65
2020/12/29 05:10:49;;;;;;;0.90;0.52;;;256.60;1817.60;;;;;;5072748;28;20052;-65
2020/12/29 05:13:14;;;;;;;1.55;0.90;;;256.60;1843.20;;;;;;5072501;28;20020;-66
2020/12/29 05:15:41;;;;;;;1.13;0.88;;;256.60;1843.20;;;;;;5073018;28;20025;-65
2020/12/29 05:18:07;;;;;;;1.88;0.75;;;256.60;1843.20;;;;;;5071122;28;20375;-66
2020/12/29 05:20:39;;;;;;;3.08;1.80;;;256.60;1843.20;;;;;;5071149;28;20031;-60
2020/12/29 05:23:05;;;;;;;3.50;1.65;;;256.60;1894.40;;;;;;5053127;28;20028;-60
2020/12/29 05:25:30;;;;;;;0.70;0.50;;;256.50;1868.80;;;;;;5070890;28;20087;-60
2020/12/29 05:27:57;;;;;;;0.85;0.60;;;256.50;1868.80;;;;;;5071683;28;20048;-60
2020/12/29 05:30:23;;;;;;;2.13;1.45;;;256.50;1894.40;;;;;;5071180;28;20016;-61
2020/12/29 05:32:48;;;;;;;2.40;1.13;;;256.40;1920.00;;;;;;5073395;28;20025;-59
2020/12/29 05:35:15;;;;;;;3.50;1.23;;;256.40;1894.40;;;;;;5078149;28;20118;-60
2020/12/29 05:37:41;;;;;;;1.15;0.80;;;256.40;1894.40;;;;;;5077640;28;20020;-60
2020/12/29 05:40:27;;;;;;;1.42;0.90;;;256.50;1894.40;;;;;;5077963;28;20524;-60
2020/12/29 05:42:55;;;;;;;1.52;0.88;;;256.60;1868.80;;;;;;5078203;28;20454;-61
2020/12/29 05:45:23;;;;;;;1.40;0.85;;;256.60;1868.80;;;;;;5077802;28;20375;-61
2020/12/29 05:48:07;;;;;;;2.20;1.50;;;256.70;1843.20;;;;;;5078358;28;20074;-60
2020/12/29 05:50:33;;;;;;;2.08;1.30;;;256.70;1843.20;;;;;;5078316;28;20501;-61
2020/12/29 05:53:01;;;;;;;1.60;1.20;;;256.60;1843.20;;;;;;5078293;28;20024;-61
2020/12/29 05:55:27;;;;;;;1.50;0.90;;;256.40;1894.40;;;;;;5078316;28;20025;-62
2020/12/29 05:58:10;;;;;;;2.20;1.10;;;256.50;1868.80;;;;;;5077474;28;20478;-61
2020/12/29 06:00:40;;;;;;;2.30;1.58;;;256.60;1868.80;;;;;;5076766;28;20539;-61
2020/12/29 06:03:08;;;;;;;2.05;1.38;;;256.60;1843.20;;;;;;5077567;28;20040;-61
2020/12/29 06:05:35;;;;;;;2.95;1.60;;;256.70;1843.20;;;;;;5077886;28;20048;-61
2020/12/29 06:08:03;;;;;;;2.03;1.42;;;256.80;1817.60;;;;;;5077836;28;20062;-61
2020/12/29 06:10:30;;;;;;;1.70;1.08;;;256.80;1843.20;;;;;;5078107;28;20103;-60
2020/12/29 06:12:58;;;;;;;2.72;1.33;;;256.80;1817.60;;;;;;5078167;28;20024;-60
2020/12/29 06:15:28;;;;;;;2.97;1.50;;;256.80;1817.60;;;;;;5075334;28;20474;-60
2020/12/29 06:17:58;;;;;;;4.38;1.70;;;256.80;1817.60;;;;;;5048073;28;20021;-62
2020/12/29 06:20:33;;;;;;;3.55;2.00;;;256.70;1817.60;;;;;;5078280;28;20143;-60
2020/12/29 06:23:01;;;;;;;3.78;1.73;;;256.70;1843.20;;;;;;5078309;28;20024;-60
2020/12/29 06:25:32;;;;;;;4.90;3.03;;;256.60;1843.20;;;;;;5078095;28;20048;-62
2020/12/29 06:28:01;;;;;;;7.78;2.70;;;256.50;1843.20;;;;;;5077453;28;20024;-61
2020/12/29 06:30:27;;;;;;;5.97;2.97;;;256.50;1843.20;;;;;;5078407;28;20070;-60
2020/12/29 06:32:54;;;;;;;4.35;2.92;;;256.40;1868.80;;;;;;5077077;28;20510;-59
2020/12/29 06:35:20;;;;;;;5.10;3.33;;;256.40;1894.40;;;;;;5076042;28;20067;-61
2020/12/29 06:37:53;;;;;;;7.35;3.65;;;256.30;1894.40;;;;;;5077822;28;20025;-60
2020/12/29 06:40:22;;;;;;;6.20;3.50;;;256.30;1920.00;;;;;;5078581;28;20036;-61
2020/12/29 06:42:47;;;;;;;6.50;3.72;;;256.40;1920.00;;;;;;5077978;28;20115;-61
2020/12/29 06:45:13;;;;;;;7.65;4.30;;;256.20;1920.00;;;;;;5075582;28;20103;-60
2020/12/29 06:47:43;;;;;;;9.50;4.80;;;256.20;1920.00;;;;;;5056927;28;20028;-60
2020/12/29 06:50:22;;;;;;;13.32;6.05;;;256.10;1920.00;;;;;;5075049;28;20021;-60
2020/12/29 06:53:17;;;;;;;17.10;8.50;;;231.30;1920.00;;;;;;5074679;28;20028;-62
2020/12/29 06:55:48;;;;;;;17.42;9.50;;;231.20;1945.60;;;;;;5073357;28;20041;-60
2020/12/29 06:58:34;;;;;;;14.90;8.60;;;231.30;1971.20;;;;;;5074640;28;20046;-60
2020/12/29 07:01:25;;;;;;;13.23;7.82;;;256.00;1945.60;;;;;;5074610;28;20021;-60
2020/12/29 07:04:07;;;;;;;16.75;7.25;;;256.00;1945.60;;;;;;5068763;28;20043;-60
2020/12/29 07:06:34;;;;;;;12.35;7.18;;;256.10;1894.40;;;;;;5074361;28;20051;-58
2020/12/29 07:09:07;;;;;;;14.75;7.47;;;256.10;1920.00;;;;;;5074717;28;20036;-60
2020/12/29 07:11:33;;;;;;;13.32;7.15;;;256.20;1894.40;;;;;;5075065;28;20126;-67
2020/12/29 07:14:05;;;;;;;16.38;9.45;;;256.30;1868.80;;;;;;5074447;28;20513;-59
2020/12/29 07:16:31;;;;;;;117.15;106.22;;;256.30;1894.40;;;;;;5074939;28;20371;-61
2020/12/29 07:19:13;;;;;;;25.35;22.75;;;256.20;1894.40;;;;;;5074527;28;20398;-61
2020/12/29 07:21:39;;;;;;;12.27;10.23;;;256.30;1894.40;;;;;;5074484;28;20028;-61
2020/12/29 07:24:06;;;;;;;9.85;6.22;;;256.40;1868.80;;;;;;5074199;28;20493;-61
2020/12/29 07:26:39;;;;;;;19.00;15.82;;;256.40;1843.20;;;;;;5074818;28;20119;-60
2020/12/29 07:29:07;;;;;;;18.70;10.77;;;256.40;1817.60;;;;;;5074526;28;20021;-61
2020/12/29 07:31:36;;;;;;;12.13;6.90;;;256.40;1843.20;;;;;;5074226;28;20025;-61
2020/12/29 07:34:02;;;;;;;;;;;256.40;1817.60;;;;;;5072565;28;20055;-61
2020/12/29 07:36:29;;;;;;;13.80;7.47;;;256.40;1843.20;;;;;;5072782;28;19908;-60
2020/12/29 07:38:56;;;;;;;12.13;6.55;;;256.50;1843.20;;;;;;5073975;28;20024;-61
2020/12/29 07:41:22;;;;;;;10.90;6.28;;;256.40;1843.20;;;;;;5056179;28;20093;-60
2020/12/29 07:43:48;;;;;;;11.95;8.45;;;256.50;1817.60;;;;;;5073964;28;20020;-60
2020/12/29 07:46:14;;;;;;;11.98;7.35;;;256.60;1843.20;;;;;;5074309;28;20039;-61
2020/12/29 07:48:40;;;;;;;11.25;6.70;;;256.60;1817.60;;;;;;5073894;28;20381;-60
2020/12/29 07:51:06;;;;;;;11.20;7.30;;;256.70;1817.60;;;;;;5074141;28;20025;-62
2020/12/29 07:53:32;;;;;;;10.90;6.93;;;256.70;1817.60;;;;;;5073671;28;20028;-60
2020/12/29 07:55:58;;;;;;;16.15;7.80;;;256.60;1843.20;;;;;;5072704;28;20058;-62
2020/12/29 07:58:25;;;;;;;13.77;7.75;;;256.50;1817.60;;;;;;5070781;28;20032;-63
2020/12/29 08:00:51;;;;;;;18.98;10.80;;;256.60;1817.60;;;;;;5072942;28;20035;-62
2020/12/29 08:03:20;;;;;;;23.48;12.13;;;256.70;1817.60;;;;;;5073047;28;20066;-61
2020/12/29 08:05:46;;;;;;;;;;;256.80;1817.60;;;;;;5073645;28;20098;-60
2020/12/29 08:08:14;;;;;;;21.60;13.27;;;281.60;1817.60;;;;;;5072881;28;20392;-61
2020/12/29 08:10:42;;;;;;;26.52;14.20;;;281.70;1843.20;;;;;;5072809;28;20444;-62
2020/12/29 08:13:13;;;;;;;23.55;13.02;;;281.80;1817.60;;;;;;5073293;28;20355;-61
2020/12/29 08:15:41;;;;;;;23.25;13.40;;;281.90;1817.60;;;;;;5072888;28;20020;-63
2020/12/29 08:18:11;;;;;;;21.48;13.10;;;281.80;1792.00;;;;;;5070256;28;20021;-61
2020/12/29 08:20:49;;;;;;;20.70;12.23;;;281.90;1792.00;;;;;;5073309;28;20103;-61
2020/12/29 08:23:22;;;;;;;19.67;11.97;;;282.00;1766.40;;;;;;5071731;28;20029;-61
2020/12/29 08:26:01;;;;;;;22.55;10.88;;;282.10;1740.80;;;;;;5072810;28;20045;-61
2020/12/29 08:28:33;;;;;;;18.52;10.05;;;282.20;1715.20;;;;;;5068832;28;20031;-62
2020/12/29 08:31:05;;;;;;;16.75;9.07;;;282.30;1715.20;;;;;;5072360;28;20327;-61
2020/12/29 08:33:32;;;;;;;17.23;8.27;;;282.40;1689.60;;;;;;5072508;28;20021;-62
2020/12/29 08:36:01;;;;;;;12.30;7.03;;;282.40;1664.00;;;;;;5072717;28;20049;-63
2020/12/29 08:38:29;;;;;;;13.48;6.38;;;282.50;1664.00;;;;;;5070094;28;20067;-61
2020/12/29 08:41:04;;;;;;;14.18;7.13;;;307.20;1664.00;;;;;;5072762;28;20339;-62
2020/12/29 08:43:30;;;;;;;14.20;7.13;;;307.30;1664.00;;;;;;5072725;28;20103;-62
2020/12/29 08:46:07;;;;;;;16.40;8.55;;;307.30;1664.00;;;;;;5072607;28;20067;-68
2020/12/29 08:48:33;;;;;;;17.40;9.68;;;307.30;1664.00;;;;;;5068556;28;20021;-66
2020/12/29 08:51:00;;;;;;;13.82;7.93;;;307.50;1689.60;;;;;;5072402;28;20016;-66
2020/12/29 08:53:27;;;;;;;15.23;9.05;;;307.60;1612.80;;;;;;5071158;28;20698;-67
2020/12/29 08:55:53;;;;;;;14.57;7.80;;;307.60;1638.40;;;;;;5071477;28;20028;-66
2020/12/29 08:58:25;;;;;;;14.25;7.43;;;307.70;1638.40;;;;;;5048167;28;20075;-70
2020/12/29 09:00:52;;;;;;;16.27;9.02;;;307.60;1638.40;;;;;;5069176;28;20056;-66
2020/12/29 09:03:28;;;;;;;14.65;9.77;;;307.70;1664.00;;;;;;5071127;28;20029;-70
2020/12/29 09:05:54;;;;;;;16.52;9.40;;;307.70;1638.40;;;;;;5051984;28;20430;-64
2020/12/29 09:08:26;;;;;;;15.13;8.60;;;307.80;1638.40;;;;;;5069736;28;20051;-65
2020/12/29 09:11:12;;;;;;;13.80;11.82;;;307.90;1612.80;;;;;;5064581;28;20025;-64
2020/12/29 09:13:38;;;;;;;16.30;9.38;;;308.00;1638.40;;;;;;5071372;28;20024;-64
2020/12/29 09:16:13;;;;;;;16.00;10.75;;;308.00;1612.80;;;;;;5070571;28;20108;-69
2020/12/29 09:18:41;;;;;;;23.70;13.82;;;308.10;1638.40;;;;;;5069963;28;20039;-70
2020/12/29 09:21:24;;;;;;;24.23;13.32;;;308.10;1612.80;;;;;;5070798;28;20083;-61
2020/12/29 09:24:00;;;;;;;21.02;13.15;;;332.80;1664.00;;;;;;5069215;28;20111;-60
2020/12/29 09:26:27;;;;;;;16.92;10.68;;;308.10;1612.80;;;;;;5070462;28;20393;-60
2020/12/29 09:28:53;;;;;;;14.60;8.68;;;332.80;1638.40;;;;;;5069222;28;20024;-73
2020/12/29 09:31:29;;;;;;;17.08;9.85;;;332.80;1612.80;;;;;;5069714;28;20021;-72
2020/12/29 09:33:55;;;;;;;19.60;10.10;;;332.80;1638.40;;;;;;5068020;28;20493;-66
2020/12/29 09:36:23;;;;;;;19.38;10.90;;;332.90;1612.80;;;;;;5068892;28;20482;-70
2020/12/29 09:38:51;;;;;;;19.23;11.70;;;333.00;1612.80;;;;;;5070002;28;20035;-75
2020/12/29 09:41:17;;;;;;;19.52;11.52;;;333.00;1612.80;;;;;;5070032;28;20039;-70
2020/12/29 09:43:47;;;;;;;18.42;10.43;;;333.00;1612.80;;;;;;5069514;28;20128;-69
2020/12/29 09:46:13;;;;;;;16.85;10.05;;;333.10;1587.20;;;;;;5069730;28;20115;-73
2020/12/29 09:48:40;;;;;;;16.67;9.07;;;333.10;1587.20;;;;;;5069262;28;20128;-71
2020/12/29 09:51:09;;;;;;;14.88;7.07;;;333.20;1561.60;;;;;;5069778;28;20343;-73
2020/12/29 09:53:35;;;;;;;10.25;6.93;;;333.30;1561.60;;;;;;5069449;28;20031;-70
2020/12/29 09:56:00;;;;;;;12.73;6.93;;;333.40;1561.60;;;;;;5070463;28;20116;-68
2020/12/29 09:58:26;;;;;;;12.55;6.97;;;333.40;1561.60;;;;;;5051692;28;20017;-72
2020/12/29 10:00:52;;;;;;;22.05;8.10;;;333.50;1536.00;;;;;;5069182;28;20134;-69
2020/12/29 10:03:18;;;;;;;11.23;6.65;;;333.50;1536.00;;;;;;5069676;28;20061;-70
2020/12/29 10:05:44;;;;;;;12.35;5.90;;;333.60;1536.00;;;;;;5069671;28;20045;-71
2020/12/29 10:08:13;;;;;;;10.63;5.03;;;333.60;1510.40;;;;;;5069297;28;20032;-72
2020/12/29 10:10:39;;;;;;;9.10;4.75;;;333.70;1510.40;;;;;;5070161;28;20033;-71
2020/12/29 10:13:05;;;;;;;9.23;5.03;;;333.70;1459.20;;;;;;5069853;28;20021;-70
2020/12/29 10:15:30;;;;;;;9.52;4.68;;;333.70;1459.20;;;;;;5068650;28;20107;-73
2020/12/29 10:17:56;;;;;;;9.25;4.43;;;358.40;1459.20;;;;;;5069210;28;20374;-70
2020/12/29 10:20:22;;;;;;;10.75;4.95;;;358.50;1433.60;;;;;;5072135;28;20457;-70
2020/12/29 10:22:47;;;;;;;8.10;3.88;;;358.50;1433.60;;;;;;5074008;28;20099;-71
2020/12/29 10:25:16;;;;;;;9.98;4.30;;;358.50;1408.00;;;;;;5073915;28;20482;-72
2020/12/29 10:27:43;;;;;;;;;;;358.60;1408.00;;;;;;5072487;28;20515;-67
2020/12/29 10:30:10;;;;;;;13.93;5.70;;;358.60;1433.60;;;;;;5074126;28;20366;-62
2020/12/29 10:32:36;;;;;;;11.02;6.10;;;358.60;1459.20;;;;;;5075307;28;20120;-62
2020/12/29 10:35:03;;;;;;;9.95;5.53;;;358.60;1433.60;;;;;;5075160;28;20100;-63
2020/12/29 10:37:28;;;;;;;6.63;3.88;;;358.60;1408.00;;;;;;5075112;28;20020;-62
2020/12/29 10:39:54;;;;;;;9.80;4.13;;;358.60;1433.60;;;;;;5074137;28;20020;-62
2020/12/29 10:42:20;;;;;;;6.72;3.83;;;358.70;1408.00;;;;;;5075230;28;20021;-62
2020/12/29 10:44:45;;;;;;;6.38;3.25;;;358.70;1408.00;;;;;;5074964;28;20029;-63
2020/12/29 10:47:11;;;;;;;4.63;3.53;;;358.80;1408.00;;;;;;5075043;28;20466;-71
2020/12/29 10:49:37;;;;;;;8.85;3.75;;;358.80;1382.40;;;;;;5074311;28;20462;-69
2020/12/29 10:52:02;;;;;;;7.90;4.97;;;358.80;1382.40;;;;;;5071754;28;20046;-64
2020/12/29 10:54:28;;;;;;;11.10;4.57;;;358.80;1382.40;;;;;;5075015;28;20033;-59
2020/12/29 10:56:54;;;;;;;7.53;3.70;;;358.90;1408.00;;;;;;5074340;28;20032;-63
2020/12/29 10:59:20;;;;;;;4.60;3.17;;;358.90;1382.40;;;;;;5074176;28;20020;-64
2020/12/29 11:01:46;;;;;;;7.72;3.25;;;359.00;1356.80;;;;;;5074363;28;20032;-64
2020/12/29 11:04:11;;;;;;;5.60;3.30;;;359.10;1331.20;;;;;;5074358;28;20024;-63
2020/12/29 11:06:37;;;;;;;9.75;4.25;;;359.20;1484.80;;;;;;5073230;28;20049;-63
2020/12/29 11:09:03;;;;;;;6.55;3.80;;;359.10;1305.60;;;;;;5072853;28;20086;-63
2020/12/29 11:11:29;;;;;;;6.75;3.42;;;359.10;1331.20;;;;;;5073585;28;20035;-63
2020/12/29 11:13:55;;;;;;;8.43;3.25;;;359.10;1305.60;;;;;;5074478;28;20016;-64
2020/12/29 11:16:21;;;;;;;5.18;2.85;;;359.20;1305.60;;;;;;5073758;28;20428;-66
2020/12/29 11:18:50;;;;;;;6.63;3.25;;;359.10;1305.60;;;;;;5071188;28;20021;-65
2020/12/29 11:21:18;;;;;;;8.88;4.25;;;359.20;1305.60;;;;;;5073530;28;20055;-64
2020/12/29 11:23:44;;;;;;;7.60;3.80;;;359.10;1305.60;;;;;;5074384;28;20375;-64
2020/12/29 11:26:16;;;;;;;4.63;2.90;;;359.10;1331.20;;;;;;5072935;28;20459;-63
2020/12/29 11:28:43;;;;;;;6.38;3.25;;;359.30;1280.00;;;;;;5073569;28;20105;-64
2020/12/29 11:31:16;;;;;;;9.80;4.55;;;359.20;1305.60;;;;;;5072668;28;20482;-66
2020/12/29 11:33:42;;;;;;;5.63;2.97;;;359.20;1280.00;;;;;;5072587;28;20479;-64
2020/12/29 11:36:08;;;;;;;5.35;3.22;;;359.30;1254.40;;;;;;5073363;28;20107;-66
2020/12/29 11:38:34;;;;;;;9.25;4.18;;;359.30;1254.40;;;;;;5072426;28;20025;-63
2020/12/29 11:40:59;;;;;;;8.52;4.88;;;359.30;1280.00;;;;;;5072517;28;20043;-65
2020/12/29 11:43:25;;;;;;;10.18;5.28;;;384.00;1305.60;;;;;;5072202;28;20024;-65
2020/12/29 11:45:51;;;;;;;10.13;4.65;;;384.00;1305.60;;;;;;5072771;28;20441;-66
2020/12/29 11:48:16;;;;;;;9.20;5.53;;;384.00;1305.60;;;;;;5055247;28;20535;-65
2020/12/29 11:50:42;;;;;;;11.25;5.13;;;359.30;1331.20;;;;;;5072934;28;20027;-64
2020/12/29 11:53:11;;;;;;;9.57;5.10;;;359.30;1331.20;;;;;;5072996;28;20059;-65
2020/12/29 11:55:36;;;;;;;8.25;4.32;;;359.20;1331.20;;;;;;5073090;28;20063;-64
2020/12/29 11:58:02;;;;;;;10.30;5.65;;;359.30;1331.20;;;;;;5072576;28;20447;-64
2020/12/29 12:00:28;;;;;;;8.25;4.60;;;359.30;1331.20;;;;;;5073059;28;20017;-63
2020/12/29 12:02:53;;;;;;;8.55;5.10;;;359.30;1331.20;;;;;;5072983;28;20017;-64
2020/12/29 12:05:19;;;;;;;9.75;5.85;;;384.00;1331.20;;;;;;5072735;28;20509;-63
2020/12/29 12:07:45;;;;;;;7.80;5.00;;;384.10;1331.20;;;;;;5072025;28;20366;-63
2020/12/29 12:10:12;;;;;;;11.38;6.32;;;384.20;1331.20;;;;;;5072791;28;20468;-63
2020/12/29 12:12:38;;;;;;;10.55;6.13;;;384.20;1331.20;;;;;;5072654;28;20017;-62
2020/12/29 12:15:06;;;;;;;9.63;5.70;;;384.20;1331.20;;;;;;5071731;28;20032;-64